Pagina principale
METAR-TAF:

METAR-TAF

Aeroporti :

Aeroporto di Padova

Padova, Italia

latitudine: 45-23-45N, longitudine: 11-50-53E, altezza: 13 m

Osservazione

Il bollettino è stato emesso 13 ore e 16 minuti fa, alle 06:00 UTC
Vento 6 kt da nord-est, variando fra nord e est/nord-est
Temperature 19°C
Umidità 56%
Pressione 1021 hPa
Visibilità 10 km o più
nessuna nube inferiore a 1500 m e nessun cumulonembo

METAR: LIPU 230600Z 05006KT 360V070 CAVOK 19/10 Q1021

Ora: 21:16 (19:16 UTC)


TAF: mancante

Osservazioni e previsioni meteorologiche di più di 4000 aeroporti (messaggi METAR e TAF).

Le stazioni disponibili sono rappresentate dai dischi gialli e rossi sulla carta.

Puntare il mouse per vedere il nome della stazione.

Clicca sopra per visualizzare le osservazioni e previsioni meteorologiche.

Per cambiare la mappa : fare clic sui pulsanti verdi con una croce nera per ingrandire, il pulsante verde con un trattino per diminuire, o sulla freccia verde per le mappe adiacenti.


METAR-TAF: